sensor_id;sensor_type;location;lat;lon;timestamp;P1;durP1;ratioP1;P2;durP2;ratioP2
16600;SDS011;34891;48.164;11.572;2022-12-04T00:03:05;18.10;;;6.60;;
16600;SDS011;34891;48.164;11.572;2022-12-04T00:08:15;16.77;;;5.77;;
16600;SDS011;34891;48.164;11.572;2022-12-04T00:13:17;20.33;;;6.07;;
16600;SDS011;34891;48.164;11.572;2022-12-04T00:18:22;9.27;;;4.20;;
16600;SDS011;34891;48.164;11.572;2022-12-04T00:23:24;16.13;;;5.68;;
16600;SDS011;34891;48.164;11.572;2022-12-04T00:28:27;18.30;;;5.50;;
16600;SDS011;34891;48.164;11.572;2022-12-04T00:33:31;10.47;;;4.27;;
16600;SDS011;34891;48.164;11.572;2022-12-04T00:38:34;8.63;;;3.28;;
16600;SDS011;34891;48.164;11.572;2022-12-04T00:43:37;16.40;;;5.20;;
16600;SDS011;34891;48.164;11.572;2022-12-04T00:48:48;8.17;;;3.97;;
16600;SDS011;34891;48.164;11.572;2022-12-04T00:53:51;13.98;;;4.63;;
16600;SDS011;34891;48.164;11.572;2022-12-04T00:58:55;17.13;;;6.27;;
16600;SDS011;34891;48.164;11.572;2022-12-04T01:03:59;15.20;;;5.00;;
16600;SDS011;34891;48.164;11.572;2022-12-04T01:09:03;17.90;;;5.63;;
16600;SDS011;34891;48.164;11.572;2022-12-04T01:19:11;14.23;;;4.37;;
16600;SDS011;34891;48.164;11.572;2022-12-04T01:24:14;16.87;;;5.00;;
16600;SDS011;34891;48.164;11.572;2022-12-04T01:29:16;14.77;;;5.03;;
16600;SDS011;34891;48.164;11.572;2022-12-04T01:34:20;16.33;;;5.17;;
16600;SDS011;34891;48.164;11.572;2022-12-04T01:39:25;12.77;;;3.63;;
16600;SDS011;34891;48.164;11.572;2022-12-04T01:44:28;6.60;;;2.60;;
16600;SDS011;34891;48.164;11.572;2022-12-04T01:49:34;12.02;;;3.55;;
16600;SDS011;34891;48.164;11.572;2022-12-04T01:54:44;11.00;;;3.90;;
16600;SDS011;34891;48.164;11.572;2022-12-04T01:59:48;12.63;;;4.72;;
16600;SDS011;34891;48.164;11.572;2022-12-04T02:04:53;14.23;;;5.40;;
16600;SDS011;34891;48.164;11.572;2022-12-04T02:09:57;13.03;;;4.70;;
16600;SDS011;34891;48.164;11.572;2022-12-04T02:15:05;14.90;;;4.93;;
16600;SDS011;34891;48.164;11.572;2022-12-04T02:20:17;20.27;;;5.07;;
16600;SDS011;34891;48.164;11.572;2022-12-04T02:25:23;9.27;;;3.47;;
16600;SDS011;34891;48.164;11.572;2022-12-04T02:30:31;13.83;;;4.27;;
16600;SDS011;34891;48.164;11.572;2022-12-04T02:35:39;18.23;;;6.10;;
16600;SDS011;34891;48.164;11.572;2022-12-04T02:40:44;15.38;;;4.63;;
16600;SDS011;34891;48.164;11.572;2022-12-04T02:45:52;13.37;;;4.27;;
16600;SDS011;34891;48.164;11.572;2022-12-04T02:50:57;17.83;;;5.63;;
16600;SDS011;34891;48.164;11.572;2022-12-04T02:56:02;15.97;;;5.00;;
16600;SDS011;34891;48.164;11.572;2022-12-04T03:01:08;17.30;;;5.28;;
16600;SDS011;34891;48.164;11.572;2022-12-04T03:06:20;14.53;;;4.83;;
16600;SDS011;34891;48.164;11.572;2022-12-04T03:11:23;13.10;;;5.30;;
16600;SDS011;34891;48.164;11.572;2022-12-04T03:16:29;11.50;;;4.17;;
16600;SDS011;34891;48.164;11.572;2022-12-04T03:21:34;8.83;;;3.03;;
16600;SDS011;34891;48.164;11.572;2022-12-04T03:26:39;9.57;;;4.00;;
16600;SDS011;34891;48.164;11.572;2022-12-04T03:31:45;10.93;;;5.00;;
16600;SDS011;34891;48.164;11.572;2022-12-04T03:36:51;6.07;;;2.63;;
16600;SDS011;34891;48.164;11.572;2022-12-04T03:41:55;15.57;;;6.10;;
16600;SDS011;34891;48.164;11.572;2022-12-04T03:47:03;12.23;;;3.40;;
16600;SDS011;34891;48.164;11.572;2022-12-04T03:52:08;5.53;;;2.43;;
16600;SDS011;34891;48.164;11.572;2022-12-04T03:57:13;12.03;;;3.97;;
16600;SDS011;34891;48.164;11.572;2022-12-04T04:02:19;15.30;;;4.90;;
16600;SDS011;34891;48.164;11.572;2022-12-04T04:07:25;11.90;;;4.63;;
16600;SDS011;34891;48.164;11.572;2022-12-04T04:12:37;15.90;;;5.67;;
16600;SDS011;34891;48.164;11.572;2022-12-04T04:17:43;21.23;;;5.83;;
16600;SDS011;34891;48.164;11.572;2022-12-04T04:23:03;19.90;;;5.50;;
16600;SDS011;34891;48.164;11.572;2022-12-04T04:28:26;21.07;;;5.73;;
16600;SDS011;34891;48.164;11.572;2022-12-04T04:33:30;11.52;;;5.28;;
16600;SDS011;34891;48.164;11.572;2022-12-04T04:38:35;9.43;;;3.33;;
16600;SDS011;34891;48.164;11.572;2022-12-04T04:43:39;14.43;;;4.43;;
16600;SDS011;34891;48.164;11.572;2022-12-04T04:48:45;17.97;;;5.87;;
16600;SDS011;34891;48.164;11.572;2022-12-04T04:53:49;12.13;;;4.00;;
16600;SDS011;34891;48.164;11.572;2022-12-04T04:58:59;5.47;;;2.37;;
16600;SDS011;34891;48.164;11.572;2022-12-04T05:04:03;14.17;;;5.03;;
16600;SDS011;34891;48.164;11.572;2022-12-04T05:09:06;10.83;;;3.70;;
16600;SDS011;34891;48.164;11.572;2022-12-04T05:14:09;3.13;;;1.43;;
16600;SDS011;34891;48.164;11.572;2022-12-04T05:19:13;16.30;;;5.77;;
16600;SDS011;34891;48.164;11.572;2022-12-04T05:24:34;16.13;;;5.47;;
16600;SDS011;34891;48.164;11.572;2022-12-04T05:29:36;19.03;;;5.13;;
16600;SDS011;34891;48.164;11.572;2022-12-04T05:34:41;16.20;;;5.03;;
16600;SDS011;34891;48.164;11.572;2022-12-04T05:39:43;13.60;;;4.90;;
16600;SDS011;34891;48.164;11.572;2022-12-04T05:44:53;17.60;;;5.00;;
16600;SDS011;34891;48.164;11.572;2022-12-04T05:49:57;18.10;;;7.03;;
16600;SDS011;34891;48.164;11.572;2022-12-04T05:54:59;14.23;;;5.22;;
16600;SDS011;34891;48.164;11.572;2022-12-04T06:00:03;23.73;;;7.60;;
16600;SDS011;34891;48.164;11.572;2022-12-04T06:05:07;17.87;;;5.40;;
16600;SDS011;34891;48.164;11.572;2022-12-04T06:10:10;24.83;;;8.37;;
16600;SDS011;34891;48.164;11.572;2022-12-04T06:15:13;16.17;;;6.37;;
16600;SDS011;34891;48.164;11.572;2022-12-04T06:20:17;14.83;;;5.37;;
16600;SDS011;34891;48.164;11.572;2022-12-04T06:25:19;13.02;;;4.60;;
16600;SDS011;34891;48.164;11.572;2022-12-04T06:30:22;18.08;;;6.20;;
16600;SDS011;34891;48.164;11.572;2022-12-04T06:35:26;17.37;;;5.67;;
16600;SDS011;34891;48.164;11.572;2022-12-04T06:40:28;15.18;;;4.65;;
16600;SDS011;34891;48.164;11.572;2022-12-04T06:45:32;17.77;;;6.47;;
16600;SDS011;34891;48.164;11.572;2022-12-04T06:50:36;24.80;;;7.45;;
16600;SDS011;34891;48.164;11.572;2022-12-04T06:55:38;10.57;;;4.28;;
16600;SDS011;34891;48.164;11.572;2022-12-04T07:00:41;16.40;;;5.22;;
16600;SDS011;34891;48.164;11.572;2022-12-04T07:05:45;24.20;;;7.32;;
16600;SDS011;34891;48.164;11.572;2022-12-04T07:10:47;12.50;;;4.50;;
16600;SDS011;34891;48.164;11.572;2022-12-04T07:15:58;11.05;;;4.50;;
16600;SDS011;34891;48.164;11.572;2022-12-04T07:21:05;15.85;;;5.70;;
16600;SDS011;34891;48.164;11.572;2022-12-04T07:26:08;17.60;;;6.10;;
16600;SDS011;34891;48.164;11.572;2022-12-04T07:31:12;14.90;;;5.37;;
16600;SDS011;34891;48.164;11.572;2022-12-04T07:36:17;17.85;;;5.28;;
16600;SDS011;34891;48.164;11.572;2022-12-04T07:41:20;13.50;;;4.87;;
16600;SDS011;34891;48.164;11.572;2022-12-04T07:46:24;12.13;;;4.33;;
16600;SDS011;34891;48.164;11.572;2022-12-04T07:51:28;19.65;;;6.18;;
16600;SDS011;34891;48.164;11.572;2022-12-04T07:56:31;20.13;;;5.68;;
16600;SDS011;34891;48.164;11.572;2022-12-04T08:01:34;15.33;;;5.10;;
16600;SDS011;34891;48.164;11.572;2022-12-04T08:06:39;18.23;;;5.95;;
16600;SDS011;34891;48.164;11.572;2022-12-04T08:11:41;24.30;;;7.07;;
16600;SDS011;34891;48.164;11.572;2022-12-04T08:16:44;24.57;;;6.60;;
16600;SDS011;34891;48.164;11.572;2022-12-04T08:21:54;28.35;;;8.73;;
16600;SDS011;34891;48.164;11.572;2022-12-04T08:26:57;24.55;;;6.70;;
16600;SDS011;34891;48.164;11.572;2022-12-04T08:31:59;19.70;;;6.32;;
16600;SDS011;34891;48.164;11.572;2022-12-04T08:37:03;23.80;;;8.17;;
16600;SDS011;34891;48.164;11.572;2022-12-04T08:42:06;17.80;;;6.20;;
16600;SDS011;34891;48.164;11.572;2022-12-04T08:47:08;19.50;;;6.57;;
16600;SDS011;34891;48.164;11.572;2022-12-04T08:52:12;22.38;;;6.55;;
16600;SDS011;34891;48.164;11.572;2022-12-04T08:57:16;23.40;;;6.88;;
16600;SDS011;34891;48.164;11.572;2022-12-04T09:02:18;26.52;;;7.25;;
16600;SDS011;34891;48.164;11.572;2022-12-04T09:07:22;24.33;;;8.40;;
16600;SDS011;34891;48.164;11.572;2022-12-04T09:12:25;21.55;;;6.72;;
16600;SDS011;34891;48.164;11.572;2022-12-04T09:17:27;28.17;;;7.05;;
16600;SDS011;34891;48.164;11.572;2022-12-04T09:22:41;27.45;;;7.78;;
16600;SDS011;34891;48.164;11.572;2022-12-04T09:28:04;8.57;;;3.72;;
16600;SDS011;34891;48.164;11.572;2022-12-04T09:33:06;18.58;;;6.30;;
16600;SDS011;34891;48.164;11.572;2022-12-04T09:38:10;23.02;;;7.95;;
16600;SDS011;34891;48.164;11.572;2022-12-04T09:43:15;20.52;;;7.60;;
16600;SDS011;34891;48.164;11.572;2022-12-04T09:48:24;22.15;;;7.22;;
16600;SDS011;34891;48.164;11.572;2022-12-04T09:53:31;18.75;;;6.68;;
16600;SDS011;34891;48.164;11.572;2022-12-04T09:58:39;10.05;;;3.25;;
16600;SDS011;34891;48.164;11.572;2022-12-04T10:08:48;11.18;;;4.85;;
16600;SDS011;34891;48.164;11.572;2022-12-04T10:14:02;22.02;;;7.68;;
16600;SDS011;34891;48.164;11.572;2022-12-04T10:19:08;20.15;;;7.72;;
16600;SDS011;34891;48.164;11.572;2022-12-04T10:24:17;24.48;;;8.82;;
16600;SDS011;34891;48.164;11.572;2022-12-04T10:29:23;19.65;;;6.13;;
16600;SDS011;34891;48.164;11.572;2022-12-04T10:34:28;23.02;;;7.90;;
16600;SDS011;34891;48.164;11.572;2022-12-04T10:39:34;21.70;;;7.35;;
16600;SDS011;34891;48.164;11.572;2022-12-04T10:44:38;23.35;;;7.82;;
16600;SDS011;34891;48.164;11.572;2022-12-04T10:49:41;23.83;;;7.47;;
16600;SDS011;34891;48.164;11.572;2022-12-04T10:54:47;20.40;;;7.30;;
16600;SDS011;34891;48.164;11.572;2022-12-04T10:59:55;20.60;;;7.75;;
16600;SDS011;34891;48.164;11.572;2022-12-04T11:05:03;27.40;;;9.32;;
16600;SDS011;34891;48.164;11.572;2022-12-04T11:10:17;18.10;;;6.75;;
16600;SDS011;34891;48.164;11.572;2022-12-04T11:15:22;13.10;;;4.32;;
16600;SDS011;34891;48.164;11.572;2022-12-04T11:20:25;20.87;;;6.97;;
16600;SDS011;34891;48.164;11.572;2022-12-04T11:25:46;19.45;;;7.25;;
16600;SDS011;34891;48.164;11.572;2022-12-04T11:30:55;21.73;;;7.65;;
16600;SDS011;34891;48.164;11.572;2022-12-04T11:36:02;11.05;;;4.55;;
16600;SDS011;34891;48.164;11.572;2022-12-04T11:41:29;15.63;;;5.85;;
16600;SDS011;34891;48.164;11.572;2022-12-04T11:46:34;20.58;;;7.03;;
16600;SDS011;34891;48.164;11.572;2022-12-04T11:51:42;23.42;;;8.43;;
16600;SDS011;34891;48.164;11.572;2022-12-04T11:56:52;21.65;;;7.88;;
16600;SDS011;34891;48.164;11.572;2022-12-04T12:02:01;20.40;;;8.07;;
16600;SDS011;34891;48.164;11.572;2022-12-04T12:07:15;26.77;;;8.80;;
16600;SDS011;34891;48.164;11.572;2022-12-04T12:12:26;19.85;;;7.93;;
16600;SDS011;34891;48.164;11.572;2022-12-04T12:17:39;27.85;;;9.57;;
16600;SDS011;34891;48.164;11.572;2022-12-04T12:22:57;21.80;;;7.93;;
16600;SDS011;34891;48.164;11.572;2022-12-04T12:28:11;22.00;;;7.13;;
16600;SDS011;34891;48.164;11.572;2022-12-04T12:33:20;15.00;;;5.63;;
16600;SDS011;34891;48.164;11.572;2022-12-04T12:38:27;20.85;;;6.95;;
16600;SDS011;34891;48.164;11.572;2022-12-04T12:43:35;27.95;;;9.30;;
16600;SDS011;34891;48.164;11.572;2022-12-04T12:48:44;21.73;;;7.40;;
16600;SDS011;34891;48.164;11.572;2022-12-04T12:54:00;21.05;;;8.55;;
16600;SDS011;34891;48.164;11.572;2022-12-04T12:59:09;18.13;;;7.38;;
16600;SDS011;34891;48.164;11.572;2022-12-04T13:04:24;24.85;;;9.90;;
16600;SDS011;34891;48.164;11.572;2022-12-04T13:09:31;21.75;;;8.27;;
16600;SDS011;34891;48.164;11.572;2022-12-04T13:14:41;20.90;;;7.45;;
16600;SDS011;34891;48.164;11.572;2022-12-04T13:19:50;20.73;;;7.05;;
16600;SDS011;34891;48.164;11.572;2022-12-04T13:25:05;20.08;;;7.45;;
16600;SDS011;34891;48.164;11.572;2022-12-04T13:30:18;20.35;;;6.82;;
16600;SDS011;34891;48.164;11.572;2022-12-04T13:35:25;20.98;;;7.85;;
16600;SDS011;34891;48.164;11.572;2022-12-04T13:40:32;15.52;;;5.47;;
16600;SDS011;34891;48.164;11.572;2022-12-04T13:45:38;21.17;;;6.95;;
16600;SDS011;34891;48.164;11.572;2022-12-04T13:50:42;13.10;;;5.47;;
16600;SDS011;34891;48.164;11.572;2022-12-04T13:55:53;22.05;;;7.53;;
16600;SDS011;34891;48.164;11.572;2022-12-04T14:01:07;20.23;;;7.38;;
16600;SDS011;34891;48.164;11.572;2022-12-04T14:06:21;27.58;;;9.20;;
16600;SDS011;34891;48.164;11.572;2022-12-04T14:11:28;21.65;;;7.75;;
16600;SDS011;34891;48.164;11.572;2022-12-04T14:16:39;25.00;;;7.80;;
16600;SDS011;34891;48.164;11.572;2022-12-04T14:21:43;24.10;;;9.30;;
16600;SDS011;34891;48.164;11.572;2022-12-04T14:26:48;28.58;;;9.35;;
16600;SDS011;34891;48.164;11.572;2022-12-04T14:32:15;32.50;;;9.98;;
16600;SDS011;34891;48.164;11.572;2022-12-04T14:37:21;9.73;;;3.88;;
16600;SDS011;34891;48.164;11.572;2022-12-04T14:42:30;20.63;;;7.28;;
16600;SDS011;34891;48.164;11.572;2022-12-04T14:47:39;25.35;;;10.13;;
16600;SDS011;34891;48.164;11.572;2022-12-04T14:52:46;28.63;;;9.55;;
16600;SDS011;34891;48.164;11.572;2022-12-04T14:57:53;37.35;;;13.15;;
16600;SDS011;34891;48.164;11.572;2022-12-04T15:03:01;33.75;;;11.90;;
16600;SDS011;34891;48.164;11.572;2022-12-04T15:08:04;15.43;;;5.47;;
16600;SDS011;34891;48.164;11.572;2022-12-04T15:13:08;8.95;;;3.17;;
16600;SDS011;34891;48.164;11.572;2022-12-04T15:18:16;20.50;;;6.03;;
16600;SDS011;34891;48.164;11.572;2022-12-04T15:28:44;25.60;;;10.13;;
16600;SDS011;34891;48.164;11.572;2022-12-04T15:33:51;30.20;;;10.25;;
16600;SDS011;34891;48.164;11.572;2022-12-04T15:38:55;33.63;;;10.75;;
16600;SDS011;34891;48.164;11.572;2022-12-04T15:43:59;37.95;;;12.43;;
16600;SDS011;34891;48.164;11.572;2022-12-04T15:49:12;31.98;;;10.32;;
16600;SDS011;34891;48.164;11.572;2022-12-04T15:54:18;22.63;;;7.25;;
16600;SDS011;34891;48.164;11.572;2022-12-04T15:59:22;25.52;;;9.38;;
16600;SDS011;34891;48.164;11.572;2022-12-04T16:04:27;23.88;;;7.97;;
16600;SDS011;34891;48.164;11.572;2022-12-04T16:09:35;27.95;;;8.93;;
16600;SDS011;34891;48.164;11.572;2022-12-04T16:14:38;23.17;;;8.00;;
16600;SDS011;34891;48.164;11.572;2022-12-04T16:19:52;26.55;;;8.68;;
16600;SDS011;34891;48.164;11.572;2022-12-04T16:24:56;17.83;;;6.65;;
16600;SDS011;34891;48.164;11.572;2022-12-04T16:30:00;16.77;;;6.20;;
16600;SDS011;34891;48.164;11.572;2022-12-04T16:35:04;19.80;;;7.07;;
16600;SDS011;34891;48.164;11.572;2022-12-04T16:40:09;31.05;;;9.52;;
16600;SDS011;34891;48.164;11.572;2022-12-04T16:45:17;24.17;;;8.55;;
16600;SDS011;34891;48.164;11.572;2022-12-04T16:50:23;14.73;;;6.03;;
16600;SDS011;34891;48.164;11.572;2022-12-04T16:55:30;27.30;;;8.85;;
16600;SDS011;34891;48.164;11.572;2022-12-04T17:00:34;16.73;;;6.93;;
16600;SDS011;34891;48.164;11.572;2022-12-04T17:05:42;24.70;;;8.80;;
16600;SDS011;34891;48.164;11.572;2022-12-04T17:10:47;16.02;;;6.93;;
16600;SDS011;34891;48.164;11.572;2022-12-04T17:15:52;26.83;;;8.40;;
16600;SDS011;34891;48.164;11.572;2022-12-04T17:20:57;20.05;;;6.38;;
16600;SDS011;34891;48.164;11.572;2022-12-04T17:26:06;28.52;;;7.80;;
16600;SDS011;34891;48.164;11.572;2022-12-04T17:31:24;28.30;;;9.77;;
16600;SDS011;34891;48.164;11.572;2022-12-04T17:36:29;25.42;;;7.53;;
16600;SDS011;34891;48.164;11.572;2022-12-04T17:41:32;24.38;;;7.15;;
16600;SDS011;34891;48.164;11.572;2022-12-04T17:46:34;30.33;;;9.32;;
16600;SDS011;34891;48.164;11.572;2022-12-04T17:51:39;28.27;;;8.85;;
16600;SDS011;34891;48.164;11.572;2022-12-04T17:56:42;32.47;;;9.68;;
16600;SDS011;34891;48.164;11.572;2022-12-04T18:01:51;30.63;;;8.35;;
16600;SDS011;34891;48.164;11.572;2022-12-04T18:06:56;29.48;;;8.82;;
16600;SDS011;34891;48.164;11.572;2022-12-04T18:12:00;28.15;;;9.48;;
16600;SDS011;34891;48.164;11.572;2022-12-04T18:17:04;26.23;;;8.55;;
16600;SDS011;34891;48.164;11.572;2022-12-04T18:22:08;31.05;;;10.05;;
16600;SDS011;34891;48.164;11.572;2022-12-04T18:27:11;31.17;;;8.90;;
16600;SDS011;34891;48.164;11.572;2022-12-04T18:32:14;25.40;;;8.80;;
16600;SDS011;34891;48.164;11.572;2022-12-04T18:37:19;28.73;;;8.63;;
16600;SDS011;34891;48.164;11.572;2022-12-04T18:42:24;27.63;;;8.90;;
16600;SDS011;34891;48.164;11.572;2022-12-04T18:47:27;24.98;;;8.00;;
16600;SDS011;34891;48.164;11.572;2022-12-04T18:52:34;23.38;;;7.55;;
16600;SDS011;34891;48.164;11.572;2022-12-04T18:57:39;31.42;;;8.98;;
16600;SDS011;34891;48.164;11.572;2022-12-04T19:02:41;22.83;;;7.53;;
16600;SDS011;34891;48.164;11.572;2022-12-04T19:07:51;20.88;;;7.18;;
16600;SDS011;34891;48.164;11.572;2022-12-04T19:17:58;11.52;;;5.10;;
16600;SDS011;34891;48.164;11.572;2022-12-04T19:23:05;22.85;;;7.47;;
16600;SDS011;34891;48.164;11.572;2022-12-04T19:28:10;22.10;;;7.57;;
16600;SDS011;34891;48.164;11.572;2022-12-04T19:33:14;21.00;;;6.60;;
16600;SDS011;34891;48.164;11.572;2022-12-04T19:38:18;27.80;;;9.25;;
16600;SDS011;34891;48.164;11.572;2022-12-04T19:43:22;25.35;;;8.20;;
16600;SDS011;34891;48.164;11.572;2022-12-04T19:48:25;22.55;;;8.20;;
16600;SDS011;34891;48.164;11.572;2022-12-04T19:53:30;6.60;;;2.73;;
16600;SDS011;34891;48.164;11.572;2022-12-04T19:58:41;14.90;;;5.40;;
16600;SDS011;34891;48.164;11.572;2022-12-04T20:03:44;10.37;;;2.83;;
16600;SDS011;34891;48.164;11.572;2022-12-04T20:08:53;11.63;;;3.47;;
16600;SDS011;34891;48.164;11.572;2022-12-04T20:14:00;9.50;;;3.65;;
16600;SDS011;34891;48.164;11.572;2022-12-04T20:19:11;16.77;;;6.43;;
16600;SDS011;34891;48.164;11.572;2022-12-04T20:24:16;16.35;;;5.18;;
16600;SDS011;34891;48.164;11.572;2022-12-04T20:29:19;14.68;;;5.50;;
16600;SDS011;34891;48.164;11.572;2022-12-04T20:34:22;21.90;;;7.07;;
16600;SDS011;34891;48.164;11.572;2022-12-04T20:39:28;17.20;;;5.97;;
16600;SDS011;34891;48.164;11.572;2022-12-04T20:44:31;8.98;;;3.42;;
16600;SDS011;34891;48.164;11.572;2022-12-04T20:49:34;12.63;;;5.28;;
16600;SDS011;34891;48.164;11.572;2022-12-04T20:54:40;12.02;;;4.30;;
16600;SDS011;34891;48.164;11.572;2022-12-04T20:59:46;21.23;;;7.35;;
16600;SDS011;34891;48.164;11.572;2022-12-04T21:04:50;12.73;;;5.32;;
16600;SDS011;34891;48.164;11.572;2022-12-04T21:09:54;8.27;;;3.33;;
16600;SDS011;34891;48.164;11.572;2022-12-04T21:15:02;18.27;;;6.25;;
16600;SDS011;34891;48.164;11.572;2022-12-04T21:20:22;19.67;;;6.70;;
16600;SDS011;34891;48.164;11.572;2022-12-04T21:25:29;12.23;;;3.72;;
16600;SDS011;34891;48.164;11.572;2022-12-04T21:30:31;12.73;;;4.30;;
16600;SDS011;34891;48.164;11.572;2022-12-04T21:35:37;22.75;;;7.00;;
16600;SDS011;34891;48.164;11.572;2022-12-04T21:40:43;17.65;;;6.68;;
16600;SDS011;34891;48.164;11.572;2022-12-04T21:45:55;18.45;;;6.35;;
16600;SDS011;34891;48.164;11.572;2022-12-04T21:50:58;16.08;;;6.70;;
16600;SDS011;34891;48.164;11.572;2022-12-04T21:56:03;18.88;;;6.82;;
16600;SDS011;34891;48.164;11.572;2022-12-04T22:01:07;18.33;;;7.30;;
16600;SDS011;34891;48.164;11.572;2022-12-04T22:06:10;18.05;;;6.63;;
16600;SDS011;34891;48.164;11.572;2022-12-04T22:11:15;18.55;;;7.43;;
16600;SDS011;34891;48.164;11.572;2022-12-04T22:16:19;16.92;;;5.57;;
16600;SDS011;34891;48.164;11.572;2022-12-04T22:21:30;19.95;;;6.35;;
16600;SDS011;34891;48.164;11.572;2022-12-04T22:26:34;18.83;;;6.43;;
16600;SDS011;34891;48.164;11.572;2022-12-04T22:31:37;11.50;;;4.38;;
16600;SDS011;34891;48.164;11.572;2022-12-04T22:36:41;14.52;;;5.00;;
16600;SDS011;34891;48.164;11.572;2022-12-04T22:41:45;12.52;;;4.35;;
16600;SDS011;34891;48.164;11.572;2022-12-04T22:46:49;20.33;;;6.70;;
16600;SDS011;34891;48.164;11.572;2022-12-04T22:51:52;15.82;;;5.82;;
16600;SDS011;34891;48.164;11.572;2022-12-04T22:56:57;15.52;;;5.72;;
16600;SDS011;34891;48.164;11.572;2022-12-04T23:02:03;8.23;;;2.65;;
16600;SDS011;34891;48.164;11.572;2022-12-04T23:07:06;19.23;;;6.40;;
16600;SDS011;34891;48.164;11.572;2022-12-04T23:12:12;15.02;;;4.85;;
16600;SDS011;34891;48.164;11.572;2022-12-04T23:17:16;9.45;;;3.22;;
16600;SDS011;34891;48.164;11.572;2022-12-04T23:22:19;11.43;;;4.90;;
16600;SDS011;34891;48.164;11.572;2022-12-04T23:27:26;21.02;;;6.40;;
16600;SDS011;34891;48.164;11.572;2022-12-04T23:32:29;15.18;;;5.28;;
16600;SDS011;34891;48.164;11.572;2022-12-04T23:37:31;15.93;;;5.75;;
16600;SDS011;34891;48.164;11.572;2022-12-04T23:42:36;18.15;;;6.60;;
16600;SDS011;34891;48.164;11.572;2022-12-04T23:47:39;16.15;;;5.70;;
16600;SDS011;34891;48.164;11.572;2022-12-04T23:52:44;16.92;;;6.25;;
16600;SDS011;34891;48.164;11.572;2022-12-04T23:57:49;18.67;;;6.30;;
